Time;durP1;ratioP1;P1;durP2;ratioP2;P2;SDS_P1;SDS_P2;PMS_P1;PMS_P2;Temp;Humidity;BMP_temperature;BMP_pressure;BME280_temperature;BME280_humidity;BME280_pressure;Samples;Min_cycle;Max_cycle;Signal;HPM_P1;HPM_P2
2022/07/09 00:00:50;;;;;;;4.50;3.60;;;19.20;99.90;;;;;;5022508;28;20068;-50
2022/07/09 00:03:15;;;;;;;4.63;3.65;;;19.20;99.90;;;;;;5022438;28;20025;-50
2022/07/09 00:05:41;;;;;;;7.72;3.95;;;19.20;99.90;;;;;;5022973;28;20064;-50
2022/07/09 00:08:07;;;;;;;7.90;4.13;;;19.20;99.90;;;;;;5000774;28;20029;-50
2022/07/09 00:10:33;;;;;;;6.30;4.13;;;19.20;99.90;;;;;;5001126;28;20039;-49
2022/07/09 00:12:58;;;;;;;7.65;4.28;;;19.10;99.90;;;;;;4984548;28;20101;-50
2022/07/09 00:15:25;;;;;;;9.48;4.10;;;19.10;99.90;;;;;;4984188;28;20034;-50
2022/07/09 00:17:51;;;;;;;5.15;3.38;;;;;;;;;;5003636;28;20042;-49
2022/07/09 00:20:17;;;;;;;7.65;4.47;;;18.80;99.90;;;;;;5004665;28;20057;-50
2022/07/09 00:22:43;;;;;;;7.25;4.78;;;18.80;99.90;;;;;;5004911;28;20608;-49
2022/07/09 00:25:09;;;;;;;7.38;5.20;;;18.80;99.90;;;;;;5004962;28;20385;-50
2022/07/09 00:27:34;;;;;;;8.05;4.65;;;18.90;99.90;;;;;;5005020;28;20038;-49
2022/07/09 00:30:01;;;;;;;6.30;3.75;;;18.80;99.90;;;;;;5004806;28;20573;-49
2022/07/09 00:32:26;;;;;;;7.90;4.10;;;18.80;99.90;;;;;;5004205;28;20033;-50
2022/07/09 00:34:52;;;;;;;5.13;3.80;;;18.80;99.90;;;;;;5004000;28;20125;-49
2022/07/09 00:37:18;;;;;;;7.43;3.30;;;18.90;99.90;;;;;;5004115;28;20038;-49
2022/07/09 00:39:43;;;;;;;4.07;3.17;;;18.70;99.90;;;;;;5021257;28;20033;-49
2022/07/09 00:42:11;;;;;;;4.40;4.00;;;;;;;;;;5024627;28;20477;-50
2022/07/09 00:44:37;;;;;;;6.60;4.38;;;18.70;99.90;;;;;;5026702;28;20057;-50
2022/07/09 00:47:07;;;;;;;5.00;3.78;;;18.70;99.90;;;;;;5026856;28;20045;-50
2022/07/09 00:49:38;;;;;;;5.30;4.38;;;18.80;99.90;;;;;;5026424;28;20384;-50
2022/07/09 00:52:06;;;;;;;6.53;3.70;;;18.90;99.90;;;;;;5026648;28;20064;-50
2022/07/09 00:54:32;;;;;;;6.10;4.13;;;18.70;99.90;;;;;;5024431;28;20036;-50
2022/07/09 00:56:58;;;;;;;6.95;4.32;;;18.80;99.90;;;;;;5025782;28;20038;-50
2022/07/09 00:59:24;;;;;;;8.45;4.30;;;18.80;99.90;;;;;;5025714;28;20025;-49
2022/07/09 01:01:50;;;;;;;5.13;3.28;;;18.80;99.90;;;;;;5025585;28;20063;-49
2022/07/09 01:04:17;;;;;;;7.95;4.15;;;18.80;99.90;;;;;;5025712;28;20036;-50
2022/07/09 01:06:43;;;;;;;6.78;3.85;;;18.70;99.90;;;;;;5026608;28;20022;-49
2022/07/09 01:09:09;;;;;;;7.43;3.95;;;18.80;99.90;;;;;;5007866;28;20056;-50
2022/07/09 01:11:35;;;;;;;6.63;3.80;;;18.80;99.90;;;;;;5026371;28;20057;-50
2022/07/09 01:14:01;;;;;;;7.35;4.20;;;18.80;99.90;;;;;;5025834;28;20137;-50
2022/07/09 01:16:35;;;;;;;5.50;3.60;;;18.90;99.90;;;;;;5025539;28;20049;-49
2022/07/09 01:19:01;;;;;;;5.80;3.05;;;19.00;99.90;;;;;;5007567;28;20481;-50
2022/07/09 01:21:27;;;;;;;5.22;3.35;;;18.90;99.90;;;;;;5025260;28;20060;-49
2022/07/09 01:23:53;;;;;;;5.38;3.83;;;19.00;99.90;;;;;;5025473;28;20029;-50
2022/07/09 01:26:22;;;;;;;5.80;3.47;;;18.90;99.90;;;;;;5025009;28;20362;-50
2022/07/09 01:28:48;;;;;;;7.00;3.80;;;18.80;99.90;;;;;;5025431;28;20108;-50
2022/07/09 01:31:15;;;;;;;7.55;3.83;;;19.10;99.90;;;;;;5026014;28;20537;-50
2022/07/09 01:33:41;;;;;;;8.60;4.40;;;18.80;99.90;;;;;;5025834;28;20109;-50
2022/07/09 01:36:10;;;;;;;4.70;2.85;;;18.90;99.90;;;;;;5025852;28;20022;-49
2022/07/09 01:38:37;;;;;;;3.20;2.67;;;18.90;99.90;;;;;;5026095;28;20088;-50
2022/07/09 01:41:03;;;;;;;5.82;3.28;;;18.80;99.90;;;;;;5025603;28;20018;-49
2022/07/09 01:43:30;;;;;;;3.97;2.55;;;18.80;99.90;;;;;;5025116;28;20034;-51
2022/07/09 01:45:56;;;;;;;3.72;3.35;;;18.90;99.90;;;;;;5024479;28;20557;-48
2022/07/09 01:48:22;;;;;;;7.18;3.30;;;18.80;99.90;;;;;;5024958;28;20040;-49
2022/07/09 01:50:48;;;;;;;6.93;3.83;;;18.80;99.90;;;;;;5006271;28;20041;-49
2022/07/09 01:53:14;;;;;;;8.70;3.25;;;18.80;99.90;;;;;;5025049;28;20465;-49
2022/07/09 01:55:40;;;;;;;5.32;3.65;;;19.00;99.90;;;;;;5025318;28;20030;-49
2022/07/09 01:58:05;;;;;;;7.20;3.30;;;19.00;99.90;;;;;;5025238;28;20081;-48
2022/07/09 02:00:31;;;;;;;5.85;3.67;;;18.90;99.90;;;;;;5006758;28;20062;-48
2022/07/09 02:02:57;;;;;;;4.05;3.03;;;18.90;99.90;;;;;;5024640;28;20022;-51
2022/07/09 02:05:23;;;;;;;9.48;3.97;;;18.90;99.90;;;;;;5022344;28;20036;-50
2022/07/09 02:07:49;;;;;;;6.03;3.45;;;19.00;99.90;;;;;;5024349;28;20022;-52
2022/07/09 02:10:15;;;;;;;5.95;3.60;;;19.00;99.90;;;;;;5024781;28;20034;-49
2022/07/09 02:12:42;;;;;;;6.80;3.63;;;18.90;99.90;;;;;;5025243;28;20075;-49
2022/07/09 02:15:10;;;;;;;7.82;3.55;;;19.00;99.90;;;;;;5024977;28;20709;-51
2022/07/09 02:17:36;;;;;;;5.93;3.72;;;18.90;99.90;;;;;;4974717;28;21491;-49
2022/07/09 02:20:03;;;;;;;7.47;4.00;;;18.70;99.90;;;;;;5025047;28;20113;-49
2022/07/09 02:22:29;;;;;;;7.10;4.13;;;18.60;99.90;;;;;;4989980;28;20037;-49
2022/07/09 02:24:55;;;;;;;8.40;4.05;;;18.60;99.90;;;;;;5024261;28;20029;-49
2022/07/09 02:27:21;;;;;;;6.43;4.40;;;18.50;99.90;;;;;;5022012;28;20163;-49
2022/07/09 02:29:46;;;;;;;5.88;4.35;;;18.50;99.90;;;;;;5024061;28;20083;-49
2022/07/09 02:32:12;;;;;;;6.25;4.63;;;18.60;99.90;;;;;;5021905;28;20544;-49
2022/07/09 02:34:39;;;;;;;5.13;4.38;;;;;;;;;;5023906;28;20026;-50
2022/07/09 02:37:05;;;;;;;7.63;4.25;;;15.60;99.90;;;;;;5023811;28;20415;-49
2022/07/09 02:39:31;;;;;;;8.80;4.60;;;17.90;99.90;;;;;;5023463;28;20025;-50
2022/07/09 02:41:57;;;;;;;6.38;4.00;;;17.80;99.90;;;;;;5024363;28;20022;-50
2022/07/09 02:44:22;;;;;;;6.40;2.95;;;17.80;99.90;;;;;;5005782;28;21367;-49
2022/07/09 02:46:49;;;;;;;6.88;4.43;;;17.70;99.90;;;;;;5024125;28;20501;-52
2022/07/09 02:49:14;;;;;;;7.53;4.45;;;17.90;99.90;;;;;;5023881;28;20030;-49
2022/07/09 02:51:41;;;;;;;8.20;4.88;;;17.90;99.90;;;;;;5023342;28;20039;-48
2022/07/09 02:54:07;;;;;;;6.97;4.43;;;17.70;99.90;;;;;;5023679;28;20025;-50
2022/07/09 02:56:32;;;;;;;8.02;4.05;;;17.70;99.90;;;;;;5005057;28;20026;-48
2022/07/09 02:58:58;;;;;;;8.88;4.70;;;17.60;99.90;;;;;;5021592;28;20394;-49
2022/07/09 03:01:24;;;;;;;10.32;4.20;;;17.60;99.90;;;;;;5023644;28;20040;-49
2022/07/09 03:03:50;;;;;;;4.78;4.15;;;17.60;99.90;;;;;;5023002;28;20029;-51
2022/07/09 03:06:16;;;;;;;6.07;4.07;;;17.60;99.90;;;;;;5005188;28;20033;-49
2022/07/09 03:08:42;;;;;;;4.93;3.80;;;17.50;99.90;;;;;;5024047;28;20105;-49
2022/07/09 03:11:08;;;;;;;8.98;4.45;;;17.50;99.90;;;;;;5038632;28;20475;-49
2022/07/09 03:13:35;;;;;;;5.43;4.20;;;17.50;99.90;;;;;;5017479;28;20049;-48
2022/07/09 03:16:01;;;;;;;5.75;3.97;;;17.60;99.90;;;;;;5024849;28;20026;-49
2022/07/09 03:18:27;;;;;;;7.43;4.90;;;17.60;99.90;;;;;;5023118;28;20481;-49
2022/07/09 03:20:53;;;;;;;9.63;4.85;;;17.50;99.90;;;;;;5024295;28;20067;-49
2022/07/09 03:23:19;;;;;;;6.35;4.35;;;17.60;99.90;;;;;;5005442;28;20147;-50
2022/07/09 03:25:44;;;;;;;6.30;3.85;;;17.70;99.90;;;;;;5023184;28;20153;-49
2022/07/09 03:28:10;;;;;;;5.78;3.72;;;17.70;99.90;;;;;;5022854;28;20080;-48
2022/07/09 03:30:36;;;;;;;7.38;4.10;;;18.00;99.90;;;;;;5020923;28;20025;-49
2022/07/09 03:33:02;;;;;;;5.15;3.72;;;17.90;99.90;;;;;;5023045;28;20028;-49
2022/07/09 03:35:28;;;;;;;6.22;3.67;;;17.90;99.90;;;;;;5023358;28;20096;-49
2022/07/09 03:37:54;;;;;;;6.60;3.25;;;17.90;99.90;;;;;;5023297;28;20033;-51
2022/07/09 03:40:20;;;;;;;7.20;4.30;;;17.70;99.90;;;;;;5023339;28;20084;-50
2022/07/09 03:42:46;;;;;;;9.68;3.97;;;17.80;99.90;;;;;;5004812;28;20041;-51
2022/07/09 03:45:11;;;;;;;6.43;4.50;;;17.80;99.90;;;;;;5022459;28;20704;-52
2022/07/09 03:47:37;;;;;;;4.75;3.20;;;17.70;99.90;;;;;;5023086;28;20412;-50
2022/07/09 03:50:04;;;;;;;5.45;3.70;;;17.50;99.90;;;;;;5022364;28;20025;-53
2022/07/09 03:52:30;;;;;;;5.20;3.78;;;;;;;;;;4971458;28;20466;-50
2022/07/09 03:54:56;;;;;;;6.35;4.60;;;17.10;99.90;;;;;;5022925;28;20025;-52
2022/07/09 03:57:22;;;;;;;8.98;4.97;;;17.10;99.90;;;;;;5023272;28;20034;-50
2022/07/09 03:59:47;;;;;;;8.18;5.20;;;17.00;99.90;;;;;;5037541;28;20030;-49
2022/07/09 04:02:13;;;;;;;5.90;4.05;;;17.10;99.90;;;;;;5022656;28;20029;-50
2022/07/09 04:04:39;;;;;;;7.00;5.07;;;17.20;99.90;;;;;;5020287;28;20386;-50
2022/07/09 04:07:05;;;;;;;6.35;4.97;;;17.20;99.90;;;;;;4987735;28;20052;-49
2022/07/09 04:09:31;;;;;;;7.82;4.43;;;17.20;99.90;;;;;;5022791;28;20544;-49
2022/07/09 04:11:56;;;;;;;9.10;6.07;;;17.10;99.90;;;;;;5023298;28;20022;-49
2022/07/09 04:14:22;;;;;;;7.97;5.13;;;17.10;99.90;;;;;;5023570;28;20397;-49
2022/07/09 04:16:48;;;;;;;7.85;4.95;;;17.10;99.90;;;;;;5022712;28;20374;-50
2022/07/09 04:19:14;;;;;;;13.57;6.22;;;17.00;99.90;;;;;;5022748;28;20026;-50
2022/07/09 04:21:39;;;;;;;9.18;5.13;;;17.00;99.90;;;;;;5022083;28;20030;-49
2022/07/09 04:24:05;;;;;;;9.35;5.63;;;17.00;99.90;;;;;;5022242;28;20018;-49
2022/07/09 04:26:31;;;;;;;5.60;4.55;;;17.00;99.90;;;;;;5004052;28;20037;-49
2022/07/09 04:28:57;;;;;;;6.88;4.60;;;17.00;99.90;;;;;;5022731;28;20036;-49
2022/07/09 04:31:23;;;;;;;7.00;5.05;;;17.00;99.90;;;;;;5022883;28;20037;-50
2022/07/09 04:33:49;;;;;;;5.75;4.47;;;17.10;99.90;;;;;;5022764;28;20026;-49
2022/07/09 04:36:15;;;;;;;8.35;5.10;;;17.10;99.90;;;;;;5004072;28;20070;-49
2022/07/09 04:38:41;;;;;;;9.30;5.60;;;17.20;99.90;;;;;;5022550;28;20121;-49
2022/07/09 04:41:06;;;;;;;9.45;5.55;;;17.20;99.90;;;;;;5003482;28;20109;-49
2022/07/09 04:43:32;;;;;;;9.80;6.53;;;17.40;99.90;;;;;;5003876;28;20120;-49
2022/07/09 04:45:59;;;;;;;6.80;4.60;;;17.40;99.90;;;;;;5012080;28;20053;-49
2022/07/09 04:48:25;;;;;;;7.35;5.38;;;17.30;99.90;;;;;;5020885;28;20083;-49
2022/07/09 04:50:51;;;;;;;7.68;5.88;;;17.40;99.90;;;;;;5020739;28;20470;-49
2022/07/09 04:53:17;;;;;;;5.13;4.15;;;17.50;99.90;;;;;;5022474;28;20031;-50
2022/07/09 04:55:43;;;;;;;7.13;5.35;;;17.50;99.90;;;;;;5022301;28;20029;-49
2022/07/09 04:58:09;;;;;;;6.95;5.47;;;17.50;99.90;;;;;;5021794;28;20497;-49
2022/07/09 05:00:35;;;;;;;7.82;4.82;;;17.60;99.90;;;;;;5021885;28;20034;-49
2022/07/09 05:03:01;;;;;;;6.93;4.28;;;17.60;99.90;;;;;;5022203;28;20037;-50
2022/07/09 05:05:27;;;;;;;7.15;4.68;;;17.50;99.90;;;;;;5026271;28;20021;-50
2022/07/09 05:07:53;;;;;;;6.90;5.05;;;17.50;99.90;;;;;;5024365;28;20053;-49
2022/07/09 05:10:19;;;;;;;5.65;3.95;;;17.50;99.90;;;;;;5025880;28;20116;-49
2022/07/09 05:12:45;;;;;;;6.47;5.05;;;17.40;99.90;;;;;;5007484;28;20489;-49
2022/07/09 05:15:12;;;;;;;11.25;5.47;;;17.50;99.90;;;;;;5025442;28;20053;-49
2022/07/09 05:17:38;;;;;;;8.38;4.47;;;17.50;99.90;;;;;;5025589;28;20116;-48
2022/07/09 05:20:06;;;;;;;11.15;5.13;;;17.50;99.90;;;;;;5025183;28;20076;-48
2022/07/09 05:22:32;;;;;;;5.75;4.88;;;17.50;99.90;;;;;;5025721;28;20376;-48
2022/07/09 05:24:59;;;;;;;7.75;4.68;;;17.60;99.90;;;;;;5023837;28;20029;-49
2022/07/09 05:27:25;;;;;;;7.90;4.50;;;17.50;99.90;;;;;;5025878;28;20108;-49
2022/07/09 05:29:52;;;;;;;6.82;4.82;;;17.50;99.90;;;;;;5025982;28;20076;-49
2022/07/09 05:32:18;;;;;;;8.57;5.30;;;17.40;99.90;;;;;;4991245;28;20030;-49
2022/07/09 05:34:43;;;;;;;6.45;4.30;;;17.40;99.90;;;;;;5023110;28;20026;-49
2022/07/09 05:37:09;;;;;;;7.65;4.78;;;17.50;99.90;;;;;;5024885;28;20038;-49
2022/07/09 05:39:35;;;;;;;5.70;3.53;;;17.70;99.90;;;;;;5023046;28;20495;-49
2022/07/09 05:42:01;;;;;;;9.45;5.85;;;17.60;99.90;;;;;;5006970;28;20038;-49
2022/07/09 05:44:26;;;;;;;9.10;4.30;;;17.60;99.90;;;;;;5023390;28;20045;-49
2022/07/09 05:46:52;;;;;;;7.25;4.40;;;17.70;99.90;;;;;;5025431;28;20033;-49
2022/07/09 05:49:18;;;;;;;7.32;4.80;;;18.00;99.90;;;;;;5007236;28;20037;-49
2022/07/09 05:51:44;;;;;;;5.68;4.75;;;18.00;99.90;;;;;;5024844;28;20048;-49
2022/07/09 05:54:10;;;;;;;6.68;4.68;;;18.30;99.90;;;;;;5024576;28;20489;-49
2022/07/09 05:56:36;;;;;;;8.32;4.40;;;18.20;99.90;;;;;;5024739;28;20022;-49
2022/07/09 05:59:03;;;;;;;4.85;3.63;;;18.40;99.90;;;;;;5024952;28;20025;-49
2022/07/09 06:01:29;;;;;;;9.80;3.97;;;18.40;99.90;;;;;;5023687;28;20124;-49
2022/07/09 06:03:55;;;;;;;6.68;4.20;;;18.50;99.90;;;;;;5024379;28;20018;-49
2022/07/09 06:06:21;;;;;;;6.57;3.97;;;18.60;99.90;;;;;;5006014;28;20084;-50
2022/07/09 06:08:47;;;;;;;8.25;3.88;;;18.60;99.90;;;;;;5024693;28;20018;-49
2022/07/09 06:11:13;;;;;;;7.20;4.00;;;18.50;99.90;;;;;;5006879;28;20370;-49
2022/07/09 06:13:39;;;;;;;6.22;3.78;;;18.40;99.90;;;;;;5024094;28;20022;-49
2022/07/09 06:16:05;;;;;;;6.63;4.60;;;18.50;99.90;;;;;;4994108;28;20034;-49
2022/07/09 06:18:31;;;;;;;5.07;3.20;;;18.40;99.90;;;;;;5024441;28;20095;-50
2022/07/09 06:20:57;;;;;;;4.85;4.00;;;18.50;99.90;;;;;;5026040;28;20489;-50
2022/07/09 06:23:23;;;;;;;5.68;3.70;;;18.60;99.90;;;;;;5005592;28;20042;-49
2022/07/09 06:25:49;;;;;;;5.45;3.58;;;18.70;99.90;;;;;;5024083;28;20025;-49
2022/07/09 06:28:15;;;;;;;5.45;3.63;;;18.70;99.90;;;;;;5022165;28;20036;-49
2022/07/09 06:30:41;;;;;;;6.75;3.20;;;18.80;99.90;;;;;;5024520;28;20026;-49
2022/07/09 06:33:07;;;;;;;11.43;4.90;;;18.70;99.90;;;;;;5024587;28;20381;-50
2022/07/09 06:35:33;;;;;;;5.82;3.30;;;18.60;99.90;;;;;;5018754;28;20021;-51
2022/07/09 06:38:00;;;;;;;5.78;3.15;;;18.40;99.90;;;;;;5018022;28;20117;-50
2022/07/09 06:40:26;;;;;;;4.88;2.85;;;18.40;99.90;;;;;;5020150;28;20507;-49
2022/07/09 06:42:52;;;;;;;7.40;3.25;;;18.40;99.90;;;;;;5018646;28;20113;-49
2022/07/09 06:45:18;;;;;;;5.38;3.13;;;18.40;99.90;;;;;;5009228;28;20164;-50
2022/07/09 06:47:44;;;;;;;5.22;2.58;;;18.30;99.90;;;;;;5017596;28;20037;-49
2022/07/09 06:50:10;;;;;;;5.53;2.95;;;;;;;;;;5023344;28;20072;-49
2022/07/09 06:52:36;;;;;;;3.35;2.25;;;18.20;99.90;;;;;;5024706;28;20022;-49
2022/07/09 06:55:02;;;;;;;5.93;3.10;;;18.30;99.90;;;;;;5019638;28;20025;-48
2022/07/09 06:57:30;;;;;;;6.43;2.85;;;18.20;99.90;;;;;;5023443;28;20037;-49
2022/07/09 06:59:56;;;;;;;7.68;3.60;;;18.30;99.90;;;;;;5023822;28;20114;-48
2022/07/09 07:02:22;;;;;;;4.68;2.58;;;18.30;99.90;;;;;;5024044;28;20022;-50
2022/07/09 07:04:47;;;;;;;4.53;2.72;;;18.30;99.90;;;;;;5023998;28;20037;-49
2022/07/09 07:07:13;;;;;;;5.07;2.63;;;18.30;99.90;;;;;;5022534;28;20026;-49
2022/07/09 07:09:39;;;;;;;5.07;3.20;;;18.50;99.90;;;;;;5023793;28;20034;-48
2022/07/09 07:12:06;;;;;;;6.93;3.00;;;18.50;99.90;;;;;;5021203;28;20389;-49
2022/07/09 07:14:31;;;;;;;6.38;2.60;;;18.50;99.90;;;;;;4989341;28;20031;-49
2022/07/09 07:16:57;;;;;;;8.18;2.58;;;18.60;99.90;;;;;;5023958;28;20033;-48
2022/07/09 07:19:23;;;;;;;6.60;2.63;;;18.50;99.90;;;;;;5021970;28;20029;-49
2022/07/09 07:21:49;;;;;;;5.45;2.63;;;18.50;99.90;;;;;;5005305;28;20038;-49
2022/07/09 07:24:15;;;;;;;6.13;1.83;;;18.80;99.90;;;;;;5024625;28;20017;-48
2022/07/09 07:26:41;;;;;;;5.05;2.60;;;18.60;99.90;;;;;;5016293;28;20025;-48
2022/07/09 07:29:07;;;;;;;5.57;2.63;;;18.60;99.90;;;;;;4999881;28;20030;-48
2022/07/09 07:31:33;;;;;;;4.68;2.90;;;18.70;99.90;;;;;;5018006;28;20420;-49
2022/07/09 07:34:02;;;;;;;7.22;2.47;;;18.80;99.90;;;;;;5021737;28;20034;-49
2022/07/09 07:36:27;;;;;;;5.95;2.33;;;18.80;99.90;;;;;;5014951;28;20026;-48
2022/07/09 07:38:53;;;;;;;5.88;2.38;;;18.70;99.90;;;;;;5017241;28;20060;-49
2022/07/09 07:41:20;;;;;;;3.10;2.13;;;18.80;99.90;;;;;;5007388;28;20393;-49
2022/07/09 07:43:46;;;;;;;8.35;2.83;;;18.90;99.90;;;;;;4998639;28;20041;-50
2022/07/09 07:46:12;;;;;;;10.13;2.67;;;19.00;99.90;;;;;;5019624;28;20021;-49
2022/07/09 07:48:41;;;;;;;5.30;2.80;;;19.10;99.90;;;;;;5020061;28;20104;-49
2022/07/09 07:51:07;;;;;;;9.60;2.95;;;19.20;99.90;;;;;;5013936;28;20029;-49
2022/07/09 07:53:33;;;;;;;5.65;2.35;;;19.10;99.90;;;;;;5021574;28;20018;-49
2022/07/09 07:56:06;;;;;;;5.40;2.75;;;19.30;99.90;;;;;;5023872;28;20103;-49
2022/07/09 07:58:33;;;;;;;4.88;2.20;;;19.40;99.90;;;;;;5009256;28;20038;-49
2022/07/09 08:00:59;;;;;;;5.22;2.10;;;19.60;99.90;;;;;;5024301;28;20432;-49
2022/07/09 08:03:25;;;;;;;4.43;2.53;;;19.60;99.90;;;;;;5025736;28;20029;-50
2022/07/09 08:05:51;;;;;;;5.25;2.42;;;19.70;99.90;;;;;;5025193;28;20032;-49
2022/07/09 08:08:18;;;;;;;4.93;2.70;;;19.80;99.90;;;;;;5010386;28;20124;-50
2022/07/09 08:10:45;;;;;;;2.08;1.40;;;19.90;99.90;;;;;;5021584;28;20433;-49
2022/07/09 08:13:12;;;;;;;5.68;2.50;;;19.80;99.90;;;;;;5022802;28;20084;-48
2022/07/09 08:15:38;;;;;;;4.22;2.45;;;19.90;99.90;;;;;;5022341;28;20095;-51
2022/07/09 08:18:04;;;;;;;2.80;2.22;;;20.00;99.90;;;;;;5017544;28;20635;-48
2022/07/09 08:20:30;;;;;;;5.57;2.00;;;20.20;99.90;;;;;;5017164;28;20025;-47
2022/07/09 08:22:55;;;;;;;5.55;1.80;;;20.20;99.90;;;;;;5022824;28;20025;-50
2022/07/09 08:25:22;;;;;;;4.65;2.20;;;20.10;99.90;;;;;;5019689;28;20032;-50
2022/07/09 08:27:49;;;;;;;3.38;2.22;;;20.30;99.90;;;;;;5014072;28;20413;-48
2022/07/09 08:30:15;;;;;;;3.90;1.88;;;20.50;99.90;;;;;;4993420;28;20486;-49
2022/07/09 08:32:40;;;;;;;2.55;1.65;;;20.50;99.90;;;;;;5003291;28;20034;-48
2022/07/09 08:35:07;;;;;;;4.07;1.88;;;20.50;99.90;;;;;;4998430;28;20062;-48
2022/07/09 08:37:33;;;;;;;5.38;2.10;;;20.80;99.90;;;;;;4980382;28;20105;-48
2022/07/09 08:40:00;;;;;;;3.20;2.10;;;21.00;99.90;;;;;;4988280;28;20034;-48
2022/07/09 08:42:26;;;;;;;3.10;1.38;;;20.90;99.90;;;;;;5010374;28;20165;-48
2022/07/09 08:44:54;;;;;;;6.05;2.30;;;20.80;99.90;;;;;;5006646;28;20046;-48
2022/07/09 08:47:21;;;;;;;5.13;2.33;;;20.90;99.90;;;;;;5007625;28;20133;-48
2022/07/09 08:49:48;;;;;;;4.38;2.40;;;20.90;99.90;;;;;;5004674;28;20081;-48
2022/07/09 08:52:15;;;;;;;5.93;2.75;;;20.90;99.90;;;;;;5004023;28;20041;-49
2022/07/09 08:54:42;;;;;;;6.00;2.70;;;;;;;;;;5004743;28;20414;-49
2022/07/09 08:57:08;;;;;;;3.63;2.00;;;;;;;;;;5003421;28;20041;-49
2022/07/09 08:59:34;;;;;;;4.07;2.38;;;21.10;99.90;;;;;;5005190;28;20109;-49
2022/07/09 09:02:11;;;;;;;2.65;1.70;;;21.30;99.90;;;;;;4998228;28;20168;-49
2022/07/09 09:04:39;;;;;;;3.20;2.15;;;21.30;99.90;;;;;;4995506;28;20045;-48
2022/07/09 09:07:16;;;;;;;5.40;2.75;;;21.40;99.90;;;;;;4996705;28;20085;-50
2022/07/09 09:09:42;;;;;;;6.38;2.58;;;21.30;99.90;;;;;;5004146;28;20033;-51
2022/07/09 09:12:09;;;;;;;4.63;3.00;;;21.30;99.90;;;;;;5012655;28;20076;-49
2022/07/09 09:14:35;;;;;;;4.72;1.98;;;21.10;99.90;;;;;;4989360;28;20490;-49
2022/07/09 09:17:05;;;;;;;5.55;2.60;;;;;;;;;;4999829;28;20124;-50
2022/07/09 09:19:31;;;;;;;4.55;2.22;;;21.40;99.90;;;;;;5004220;28;20021;-50
2022/07/09 09:21:57;;;;;;;4.20;2.42;;;;;;;;;;4980416;28;20097;-49
2022/07/09 09:24:24;;;;;;;3.92;2.30;;;;;;;;;;4997888;28;20034;-49
2022/07/09 09:26:50;;;;;;;4.95;2.30;;;;;;;;;;5016377;28;20026;-49
2022/07/09 09:29:16;;;;;;;4.97;2.50;;;;;;;;;;5021616;28;20021;-49
2022/07/09 09:31:46;;;;;;;4.20;2.70;;;;;;;;;;5008319;28;20034;-49
2022/07/09 09:34:13;;;;;;;4.55;2.13;;;;;;;;;;5024538;28;20087;-48
2022/07/09 09:36:41;;;;;;;3.78;2.15;;;;;;;;;;5024364;28;20411;-50
2022/07/09 09:39:07;;;;;;;4.53;2.42;;;22.00;99.90;;;;;;5026886;28;20481;-49
2022/07/09 09:41:33;;;;;;;7.85;2.40;;;22.00;99.90;;;;;;5010195;28;20029;-48
2022/07/09 09:44:11;;;;;;;2.72;1.88;;;22.30;99.90;;;;;;5019412;28;20064;-48
2022/07/09 09:46:38;;;;;;;5.18;2.70;;;22.20;99.90;;;;;;5024163;28;20500;-48
2022/07/09 09:49:08;;;;;;;4.97;2.90;;;22.40;99.90;;;;;;5023905;28;20029;-50
2022/07/09 09:51:36;;;;;;;3.92;2.35;;;22.50;99.90;;;;;;5024954;28;20026;-49
2022/07/09 09:54:04;;;;;;;2.45;2.03;;;22.50;99.90;;;;;;5022975;28;20117;-48
2022/07/09 09:56:32;;;;;;;3.67;2.08;;;22.70;99.90;;;;;;5024521;28;20018;-50
2022/07/09 09:58:59;;;;;;;5.43;3.65;;;22.70;99.90;;;;;;5024818;28;20038;-50
2022/07/09 10:01:25;;;;;;;4.43;2.00;;;22.80;99.90;;;;;;5024417;28;20025;-49
2022/07/09 10:03:52;;;;;;;5.63;2.50;;;;;;;;;;4989401;28;20065;-50
2022/07/09 10:06:17;;;;;;;5.18;2.08;;;23.10;99.90;;;;;;5007078;28;20048;-50
2022/07/09 10:08:43;;;;;;;5.32;2.50;;;23.10;99.90;;;;;;5006685;28;20389;-50
2022/07/09 10:11:09;;;;;;;2.88;2.22;;;23.20;99.90;;;;;;4973794;28;20084;-48
2022/07/09 10:13:38;;;;;;;5.38;2.28;;;23.20;99.90;;;;;;5006065;28;20030;-48
2022/07/09 10:16:04;;;;;;;4.32;1.83;;;;;;;;;;5022360;28;20087;-48
2022/07/09 10:18:30;;;;;;;3.90;2.30;;;;;;;;;;5024028;28;20033;-50
2022/07/09 10:20:57;;;;;;;4.10;2.35;;;24.60;99.90;;;;;;5006058;28;20038;-49
2022/07/09 10:23:24;;;;;;;5.22;3.55;;;24.60;99.90;;;;;;5024259;28;20049;-50
2022/07/09 10:25:57;;;;;;;4.65;2.33;;;24.40;99.90;;;;;;5022993;28;20018;-49
2022/07/09 10:28:26;;;;;;;4.63;2.05;;;24.70;99.90;;;;;;5021318;28;20026;-50
2022/07/09 10:30:53;;;;;;;3.67;2.55;;;24.70;99.90;;;;;;5004633;28;20173;-50
2022/07/09 10:33:23;;;;;;;4.75;2.53;;;24.60;99.90;;;;;;5005111;28;20045;-48
2022/07/09 10:35:51;;;;;;;3.17;2.00;;;24.60;99.90;;;;;;5023843;28;20025;-49
2022/07/09 10:38:18;;;;;;;5.03;1.88;;;24.80;99.90;;;;;;5023914;28;20088;-48
2022/07/09 10:40:46;;;;;;;6.10;2.05;;;;;;;;;;5022531;28;20025;-48
2022/07/09 10:43:12;;;;;;;3.47;2.25;;;25.00;99.90;;;;;;5021582;28;21518;-51
2022/07/09 10:45:42;;;;;;;5.63;2.30;;;;;;;;;;5015437;28;20478;-50
2022/07/09 10:48:10;;;;;;;3.40;2.20;;;;;;;;;;5039774;28;20033;-48
2022/07/09 10:50:38;;;;;;;5.40;1.85;;;;;;;;;;5024493;28;20360;-54
2022/07/09 10:53:04;;;;;;;3.80;2.05;;;;;;;;;;5012442;28;20046;-56
2022/07/09 10:55:30;;;;;;;5.18;2.10;;;;;;;;;;5019465;28;20036;-48
2022/07/09 10:57:57;;;;;;;2.58;1.90;;;;;;;;;;5024602;28;20406;-47
2022/07/09 11:00:24;;;;;;;1.95;1.45;;;;;;;;;;5020831;28;20026;-50
2022/07/09 11:02:51;;;;;;;3.97;1.88;;;;;;;;;;5022525;28;20052;-51
2022/07/09 11:05:17;;;;;;;2.50;1.90;;;;;;;;;;5021332;28;20030;-51
2022/07/09 11:07:43;;;;;;;4.88;2.72;;;26.00;99.90;;;;;;5025059;28;20084;-52
2022/07/09 11:10:20;;;;;;;3.25;2.13;;;26.00;99.90;;;;;;5023975;28;20033;-53
2022/07/09 11:12:49;;;;;;;4.20;2.00;;;26.10;99.90;;;;;;5023299;28;20474;-51
2022/07/09 11:15:22;;;;;;;4.32;1.90;;;26.00;99.90;;;;;;5023178;28;20032;-49
2022/07/09 11:18:14;;;;;;;7.40;2.20;;;26.00;99.90;;;;;;5021028;28;20175;-49
2022/07/09 11:20:41;;;;;;;2.50;1.90;;;25.60;99.90;;;;;;5016940;28;20454;-53
2022/07/09 11:23:15;;;;;;;3.80;1.95;;;25.40;99.90;;;;;;5021887;28;20026;-50
2022/07/09 11:25:42;;;;;;;4.28;2.40;;;25.40;99.90;;;;;;4981920;28;20038;-48
2022/07/09 11:28:08;;;;;;;3.00;1.77;;;25.10;99.90;;;;;;4990560;28;20042;-48
2022/07/09 11:30:34;;;;;;;4.93;2.30;;;25.00;99.90;;;;;;4993305;28;20041;-48
2022/07/09 11:33:00;;;;;;;4.07;2.33;;;25.10;99.90;;;;;;4995419;28;20037;-48
2022/07/09 11:35:30;;;;;;;4.32;2.30;;;25.10;99.90;;;;;;4995688;28;20058;-51
2022/07/09 11:38:00;;;;;;;4.15;1.77;;;25.20;99.90;;;;;;4994383;28;20030;-47
2022/07/09 11:40:27;;;;;;;6.03;2.10;;;24.90;99.90;;;;;;4981758;28;20521;-51
2022/07/09 11:42:53;;;;;;;3.75;1.73;;;25.10;99.90;;;;;;5000059;28;20029;-51
2022/07/09 11:45:32;;;;;;;2.58;1.92;;;25.10;99.90;;;;;;4996648;28;20176;-51
2022/07/09 11:48:08;;;;;;;4.07;2.10;;;25.60;99.90;;;;;;4991917;28;20145;-51
2022/07/09 11:50:43;;;;;;;2.70;1.88;;;25.50;99.90;;;;;;4965318;28;20053;-51
2022/07/09 11:53:27;;;;;;;3.92;2.90;;;26.00;99.90;;;;;;4991492;28;20046;-51
2022/07/09 11:56:06;;;;;;;4.18;2.05;;;26.40;99.90;;;;;;4977544;28;20100;-51
2022/07/09 11:58:32;;;;;;;6.50;2.60;;;26.70;99.90;;;;;;5003304;28;20037;-51
2022/07/09 12:01:02;;;;;;;2.72;1.95;;;;;;;;;;5022451;28;20705;-51
2022/07/09 12:03:30;;;;;;;6.75;4.32;;;26.70;99.90;;;;;;5022561;28;20020;-52
2022/07/09 12:05:55;;;;;;;2.25;1.75;;;26.60;99.90;;;;;;5018868;28;20378;-51
2022/07/09 12:08:30;;;;;;;4.15;2.17;;;26.00;99.90;;;;;;5015417;28;20034;-51
2022/07/09 12:10:56;;;;;;;2.95;2.00;;;26.10;99.90;;;;;;5023072;28;20030;-51
2022/07/09 12:13:22;;;;;;;4.55;1.65;;;26.30;99.90;;;;;;5022131;28;20425;-51
2022/07/09 12:15:48;;;;;;;3.63;2.03;;;26.20;99.90;;;;;;5022282;28;20022;-51
2022/07/09 12:18:13;;;;;;;4.30;1.70;;;26.50;99.90;;;;;;5022345;28;20084;-52
2022/07/09 12:20:39;;;;;;;4.10;1.75;;;26.90;99.90;;;;;;5022166;28;20026;-51
2022/07/09 12:23:06;;;;;;;3.35;1.83;;;;;;;;;;5020944;28;20037;-50
2022/07/09 12:25:31;;;;;;;2.65;1.70;;;27.10;99.90;;;;;;5004556;28;20032;-51
2022/07/09 12:27:57;;;;;;;2.33;1.52;;;27.10;99.90;;;;;;5021074;28;20030;-50
2022/07/09 12:30:23;;;;;;;2.83;1.40;;;27.00;99.90;;;;;;5023456;28;20473;-51
2022/07/09 12:32:49;;;;;;;1.75;1.35;;;27.10;99.90;;;;;;5022275;28;20080;-51
2022/07/09 12:35:15;;;;;;;2.75;1.40;;;26.80;99.90;;;;;;5014832;28;20385;-52
2022/07/09 12:37:41;;;;;;;4.45;1.83;;;26.80;99.90;;;;;;5021731;28;20392;-51
2022/07/09 12:40:10;;;;;;;3.85;1.60;;;26.90;99.90;;;;;;5022778;28;20108;-51
2022/07/09 12:42:35;;;;;;;3.33;1.63;;;27.20;99.90;;;;;;4986838;28;20048;-51
2022/07/09 12:45:02;;;;;;;4.57;1.60;;;27.30;99.90;;;;;;5022471;28;20046;-51
2022/07/09 12:47:27;;;;;;;5.82;1.42;;;26.90;99.90;;;;;;5004380;28;20089;-51
2022/07/09 12:49:53;;;;;;;2.50;1.60;;;26.90;99.90;;;;;;5022520;28;20077;-51
2022/07/09 12:52:19;;;;;;;1.98;1.02;;;26.80;99.90;;;;;;5022456;28;20307;-51